Time;durP1;ratioP1;P1;durP2;ratioP2;P2;SDS_P1;SDS_P2;PMS_P1;PMS_P2;Temp;Humidity;BMP_temperature;BMP_pressure;BME280_temperature;BME280_humidity;BME280_pressure;Samples;Min_cycle;Max_cycle;Signal;HPM_P1;HPM_P2
2022/01/15 00:02:10;;;;;;;38.50;26.85;;;;;;;;;;5057391;28;20192;-86
2022/01/15 00:04:37;;;;;;;38.60;27.95;;;;;;;;;;5058846;28;20562;-85
2022/01/15 00:07:06;;;;;;;35.95;25.60;;;;;;;;;;5059149;28;20208;-86
2022/01/15 00:09:33;;;;;;;31.15;23.70;;;;;;;;;;5057899;28;20231;-86
2022/01/15 00:12:01;;;;;;;31.50;21.33;;;;;;;;;;5060447;28;20217;-85
2022/01/15 00:14:34;;;;;;;32.03;22.25;;;;;;;;;;5056614;28;20208;-86
2022/01/15 00:17:06;;;;;;;31.23;23.42;;;;;;;;;;5054783;28;20216;-85
2022/01/15 00:19:41;;;;;;;27.48;22.25;;;;;;;;;;5058742;28;20203;-86
2022/01/15 00:22:10;;;;;;;29.08;21.77;;;;;;;;;;5060553;28;20210;-86
2022/01/15 00:24:38;;;;;;;27.45;21.10;;;;;;;;;;5059560;28;20657;-86
2022/01/15 00:27:05;;;;;;;32.70;23.67;;;;;;;;;;5057675;28;20199;-86
2022/01/15 00:29:32;;;;;;;25.77;19.33;;;;;;;;;;5059486;28;20237;-86
2022/01/15 00:32:00;;;;;;;29.60;19.83;;;;;;;;;;5058492;28;20214;-86
2022/01/15 00:34:27;;;;;;;29.02;21.88;;;;;;;;;;5057903;28;20203;-86
2022/01/15 00:36:55;;;;;;;28.33;20.00;;;;;;;;;;5059175;28;20226;-86
2022/01/15 00:39:24;;;;;;;32.92;20.88;;;-0.70;99.90;;;;;;5057441;28;20253;-86
2022/01/15 00:41:51;;;;;;;23.48;16.52;;;;;;;;;;5060839;28;20207;-86
2022/01/15 00:44:18;;;;;;;28.42;19.20;;;;;;;;;;5051583;28;20692;-85
2022/01/15 00:46:46;;;;;;;20.60;18.08;;;;;;;;;;5059520;28;20204;-86
2022/01/15 00:49:13;;;;;;;26.83;18.15;;;;;;;;;;5058049;28;20342;-86
2022/01/15 00:51:40;;;;;;;26.60;18.60;;;;;;;;;;5058770;28;20210;-86
2022/01/15 00:54:08;;;;;;;28.35;18.67;;;;;;;;;;5058059;28;20200;-85
2022/01/15 00:56:36;;;;;;;28.55;20.55;;;;;;;;;;5058013;28;20203;-85
2022/01/15 00:59:04;;;;;;;23.35;20.85;;;;;;;;;;5056463;28;20566;-86
2022/01/15 01:01:31;;;;;;;36.55;22.42;;;;;;;;;;5057345;28;20538;-86
2022/01/15 01:03:59;;;;;;;34.30;24.00;;;;;;;;;;5052246;28;20216;-86
2022/01/15 01:06:26;;;;;;;29.70;22.20;;;;;;;;;;5059220;28;20288;-86
2022/01/15 01:08:54;;;;;;;31.58;20.58;;;;;;;;;;5057461;28;20716;-86
2022/01/15 01:11:31;;;;;;;26.58;19.35;;;;;;;;;;5058312;28;20199;-86
2022/01/15 01:25:14;;;;;;;24.80;18.48;;;;;;;;;;5077033;27;20799;-85
2022/01/15 01:27:46;;;;;;;21.23;16.98;;;;;;;;;;5077139;28;20224;-86
2022/01/15 01:30:20;;;;;;;21.70;16.90;;;;;;;;;;5077799;28;20207;-85
2022/01/15 01:32:55;;;;;;;26.67;18.27;;;;;;;;;;5070436;28;20232;-86
2022/01/15 01:35:38;;;;;;;27.85;17.23;;;;;;;;;;5075016;28;20213;-85
2022/01/15 01:38:14;;;;;;;22.70;16.88;;;;;;;;;;5070726;28;20294;-85
2022/01/15 01:40:46;;;;;;;23.73;17.58;;;;;;;;;;5075048;28;20203;-86
2022/01/15 01:46:17;;;;;;;27.13;15.93;;;;;;;;;;5049290;28;20223;-86
2022/01/15 01:48:44;;;;;;;18.30;15.05;;;;;;;;;;5072134;28;20278;-86
2022/01/15 01:51:21;;;;;;;20.30;17.20;;;-0.90;99.90;;;;;;5075354;28;20661;-86
2022/01/15 01:53:48;;;;;;;23.23;15.60;;;;;;;;;;5076385;28;20298;-85
2022/01/15 01:56:18;;;;;;;22.92;15.55;;;-0.90;99.90;;;;;;5072670;28;20242;-85
2022/01/15 01:58:45;;;;;;;26.63;14.95;;;;;;;;;;5075656;28;20195;-85
2022/01/15 02:01:13;;;;;;;18.98;15.75;;;;;;;;;;5075732;28;20206;-85
2022/01/15 02:03:40;;;;;;;25.42;15.07;;;;;;;;;;5074681;28;20284;-86
2022/01/15 02:06:07;;;;;;;18.25;14.63;;;;;;;;;;5074058;28;20213;-85
2022/01/15 02:08:36;;;;;;;20.98;15.07;;;;;;;;;;5075135;28;20207;-86
2022/01/15 02:11:04;;;;;;;18.05;15.40;;;;;;;;;;5073682;28;20619;-86
2022/01/15 02:13:33;;;;;;;19.60;14.27;;;;;;;;;;5077025;28;20198;-86
2022/01/15 02:16:01;;;;;;;18.20;16.10;;;-0.90;99.90;;;;;;5069239;28;20211;-86
2022/01/15 02:18:31;;;;;;;23.75;14.98;;;;;;;;;;5075364;28;20214;-86
2022/01/15 02:23:31;;;;;;;19.88;15.05;;;;;;;;;;5074348;28;20199;-86
2022/01/15 02:23:50;;;;;;;19.27;15.30;;;-0.90;99.90;;;;;;5071523;28;20235;-86
2022/01/15 02:26:20;;;;;;;19.50;14.85;;;-0.90;99.90;;;;;;5073533;28;20203;-86
2022/01/15 02:28:53;;;;;;;20.02;15.25;;;-0.90;99.90;;;;;;5076044;28;20202;-86
2022/01/15 02:31:20;;;;;;;22.27;16.05;;;;;;;;;;5068713;28;20261;-85
2022/01/15 02:33:49;;;;;;;19.92;15.68;;;-0.80;99.90;;;;;;5075615;28;20648;-85
2022/01/15 02:36:19;;;;;;;22.02;18.00;;;-0.80;99.90;;;;;;5061318;28;20204;-86
2022/01/15 02:38:46;;;;;;;23.95;14.77;;;;;;;;;;5060802;28;20199;-85
2022/01/15 02:41:13;;;;;;;24.63;17.90;;;;;;;;;;5061802;28;20199;-85
2022/01/15 02:43:41;;;;;;;21.80;17.10;;;;;;;;;;5059897;28;20658;-86
2022/01/15 02:46:21;;;;;;;24.23;18.70;;;-0.80;99.90;;;;;;5059818;28;20215;-85
2022/01/15 02:48:50;;;;;;;39.05;22.73;;;;;;;;;;5058814;28;20231;-86
2022/01/15 02:51:19;;;;;;;25.65;19.63;;;;;;;;;;5060149;28;20218;-85
2022/01/15 02:53:46;;;;;;;25.15;19.55;;;;;;;;;;5062166;28;20207;-86
2022/01/15 02:56:14;;;;;;;25.50;19.48;;;;;;;;;;5057731;28;20204;-85
2022/01/15 02:58:41;;;;;;;27.65;19.52;;;;;;;;;;5056368;28;20954;-86
2022/01/15 03:01:08;;;;;;;25.95;20.15;;;;;;;;;;5062247;28;20253;-85
2022/01/15 03:03:35;;;;;;;33.17;21.55;;;;;;;;;;5059720;28;20346;-86
2022/01/15 03:06:04;;;;;;;23.52;19.20;;;;;;;;;;5060354;28;20203;-86
2022/01/15 03:08:33;;;;;;;27.83;20.17;;;;;;;;;;5061214;28;20692;-86
2022/01/15 03:11:02;;;;;;;26.73;19.17;;;-1.10;99.90;;;;;;5060086;28;20262;-85
2022/01/15 03:13:30;;;;;;;25.65;19.52;;;;;;;;;;5063769;28;20653;-85
2022/01/15 03:15:57;;;;;;;28.05;20.30;;;;;;;;;;5061802;28;20218;-85
2022/01/15 03:18:24;;;;;;;29.92;19.27;;;;;;;;;;5059066;28;20219;-86
2022/01/15 03:20:51;;;;;;;24.85;17.30;;;;;;;;;;5061469;28;20830;-86
2022/01/15 03:23:19;;;;;;;27.63;20.30;;;;;;;;;;5059096;28;20222;-85
2022/01/15 03:25:47;;;;;;;24.08;19.17;;;;;;;;;;5059121;28;20273;-86
2022/01/15 03:28:15;;;;;;;28.38;18.42;;;;;;;;;;5060764;28;20697;-85
2022/01/15 03:30:42;;;;;;;25.50;17.63;;;;;;;;;;5059118;28;20200;-86
2022/01/15 03:33:09;;;;;;;31.08;18.70;;;;;;;;;;5061418;28;20553;-85
2022/01/15 03:35:37;;;;;;;22.50;18.17;;;;;;;;;;5057367;28;20212;-86
2022/01/15 03:38:04;;;;;;;24.42;16.25;;;;;;;;;;5061155;28;20226;-85
2022/01/15 03:40:32;;;;;;;28.20;19.33;;;;;;;;;;5059098;28;20602;-85
2022/01/15 03:43:01;;;;;;;26.40;19.95;;;;;;;;;;5060467;28;20419;-86
2022/01/15 03:45:28;;;;;;;22.50;17.67;;;;;;;;;;5058392;28;20558;-86
2022/01/15 03:47:56;;;;;;;21.10;16.23;;;-1.30;99.90;;;;;;5058356;28;20292;-86
2022/01/15 03:50:24;;;;;;;23.58;18.50;;;;;;;;;;5060631;28;20280;-85
2022/01/15 03:52:51;;;;;;;29.75;18.75;;;;;;;;;;5057750;28;20743;-86
2022/01/15 03:55:20;;;;;;;22.50;17.85;;;-1.40;99.90;;;;;;5053491;28;20204;-85
2022/01/15 03:57:47;;;;;;;25.00;18.70;;;;;;;;;;5060028;28;20204;-85
2022/01/15 04:00:18;;;;;;;28.40;17.02;;;0.10;99.90;;;;;;5060342;28;20215;-86
2022/01/15 04:02:46;;;;;;;25.25;20.65;;;;;;;;;;5059580;28;20226;-86
2022/01/15 04:05:13;;;;;;;27.48;18.80;;;;;;;;;;5057401;28;20235;-86
2022/01/15 04:07:40;;;;;;;21.55;16.80;;;;;;;;;;5060717;28;20215;-86
2022/01/15 04:10:09;;;;;;;21.70;17.08;;;-1.40;99.90;;;;;;5057950;28;20215;-85
2022/01/15 04:12:37;;;;;;;24.83;16.88;;;;;;;;;;5053866;28;20216;-85
2022/01/15 04:15:05;;;;;;;23.00;17.20;;;-1.50;99.90;;;;;;5059799;28;20222;-85
2022/01/15 04:17:33;;;;;;;19.70;15.07;;;;;;;;;;5058079;28;20654;-85
2022/01/15 04:20:01;;;;;;;19.52;15.88;;;;;;;;;;5059403;28;20207;-85
2022/01/15 04:22:28;;;;;;;20.20;16.85;;;;;;;;;;5059614;28;20223;-86
2022/01/15 04:24:55;;;;;;;28.48;18.00;;;;;;;;;;5057222;28;20236;-86
2022/01/15 04:27:23;;;;;;;23.73;17.17;;;;;;;;;;5060294;28;20207;-85
2022/01/15 04:29:50;;;;;;;19.77;16.10;;;;;;;;;;5057135;28;20216;-86
2022/01/15 04:32:18;;;;;;;23.58;17.55;;;;;;;;;;5053127;28;20578;-86
2022/01/15 04:34:48;;;;;;;22.40;16.67;;;;;;;;;;5059496;28;20277;-86
2022/01/15 04:37:19;;;;;;;20.23;17.30;;;;;;;;;;5058554;28;20281;-85
2022/01/15 04:39:47;;;;;;;22.10;16.13;;;;;;;;;;5058084;28;20267;-85
2022/01/15 04:42:15;;;;;;;19.92;15.10;;;;;;;;;;5059901;28;20207;-86
2022/01/15 04:44:42;;;;;;;21.48;15.38;;;;;;;;;;5054285;28;20320;-86
2022/01/15 04:47:10;;;;;;;20.42;17.48;;;;;;;;;;5053387;28;20606;-86
2022/01/15 04:49:37;;;;;;;18.50;15.60;;;;;;;;;;5060037;28;20207;-85
2022/01/15 04:52:06;;;;;;;21.92;17.02;;;;;;;;;;5057798;28;20212;-85
2022/01/15 04:54:34;;;;;;;26.48;17.23;;;;;;;;;;5058984;28;20207;-85
2022/01/15 04:57:02;;;;;;;23.35;18.08;;;;;;;;;;5060704;28;20196;-85
2022/01/15 04:59:29;;;;;;;24.15;15.50;;;;;;;;;;5056769;28;20204;-86
2022/01/15 05:01:56;;;;;;;24.17;15.98;;;;;;;;;;5060051;28;20702;-86
2022/01/15 05:04:24;;;;;;;22.05;14.80;;;;;;;;;;5055741;28;20314;-85
2022/01/15 05:06:51;;;;;;;24.52;16.13;;;;;;;;;;5052986;28;20627;-86
2022/01/15 05:09:19;;;;;;;17.58;15.57;;;;;;;;;;5059593;28;20203;-86
2022/01/15 05:11:49;;;;;;;20.67;15.10;;;;;;;;;;5057283;28;20207;-86
2022/01/15 05:14:30;;;;;;;18.92;13.55;;;;;;;;;;5057604;28;20218;-85
2022/01/15 05:17:01;;;;;;;23.08;16.50;;;-1.70;99.90;;;;;;5053126;28;20207;-86
2022/01/15 05:19:29;;;;;;;21.10;15.68;;;;;;;;;;5058675;28;20222;-86
2022/01/15 05:21:57;;;;;;;23.83;16.30;;;;;;;;;;5058737;28;20274;-85
2022/01/15 05:24:29;;;;;;;26.75;17.20;;;;;;;;;;5056168;28;20223;-85
2022/01/15 05:26:57;;;;;;;20.33;15.88;;;;;;;;;;5059805;28;20203;-86
2022/01/15 05:29:25;;;;;;;20.52;15.25;;;;;;;;;;5052675;28;20247;-86
2022/01/15 05:31:54;;;;;;;23.05;15.90;;;;;;;;;;5059785;28;20206;-86
2022/01/15 05:34:21;;;;;;;19.30;16.00;;;;;;;;;;5057135;28;20208;-85
2022/01/15 05:36:49;;;;;;;21.10;15.75;;;;;;;;;;5057449;28;20207;-85
2022/01/15 05:39:16;;;;;;;19.85;15.70;;;;;;;;;;5058682;28;20207;-86
2022/01/15 05:41:45;;;;;;;18.05;14.75;;;;;;;;;;5057232;28;20273;-85
2022/01/15 05:44:12;;;;;;;21.40;15.55;;;;;;;;;;5058625;28;20203;-84
2022/01/15 05:46:39;;;;;;;17.05;13.88;;;;;;;;;;5055127;28;20207;-85
2022/01/15 05:49:16;;;;;;;;;;;;;;;;;;;;;
2022/01/15 05:51:45;;;;;;;17.45;14.45;;;;;;;;;;5058556;28;20200;-85
2022/01/15 05:54:14;;;;;;;18.55;14.55;;;;;;;;;;5056462;28;20208;-84
2022/01/15 05:56:41;;;;;;;19.60;14.00;;;;;;;;;;5058285;28;20741;-85
2022/01/15 05:59:10;;;;;;;20.67;14.63;;;;;;;;;;5055914;28;20212;-84
2022/01/15 06:01:39;;;;;;;21.23;15.80;;;;;;;;;;5056918;28;20203;-84
2022/01/15 06:04:07;;;;;;;19.92;15.20;;;-1.80;99.90;;;;;;5057380;28;20212;-85
2022/01/15 06:06:34;;;;;;;21.65;15.57;;;;;;;;;;5057887;28;20599;-85
2022/01/15 06:09:02;;;;;;;25.08;16.25;;;;;;;;;;5057259;28;20207;-85
2022/01/15 06:11:40;;;;;;;17.23;14.30;;;;;;;;;;5061544;28;20587;-85
2022/01/15 06:14:07;;;;;;;19.02;13.82;;;;;;;;;;5056669;28;20203;-85
2022/01/15 06:16:36;;;;;;;22.80;16.58;;;-1.70;99.90;;;;;;5061461;28;20207;-85
2022/01/15 06:19:03;;;;;;;18.48;15.07;;;;;;;;;;5061509;28;20214;-85
2022/01/15 06:21:30;;;;;;;19.42;13.65;;;;;;;;;;5060748;28;20207;-85
2022/01/15 06:23:58;;;;;;;16.45;12.75;;;-1.90;99.90;;;;;;5061924;28;20550;-85
2022/01/15 06:26:25;;;;;;;18.55;13.32;;;;;;;;;;5059486;28;20297;-85
2022/01/15 06:28:53;;;;;;;18.02;13.50;;;;;;;;;;5062318;28;20215;-85
2022/01/15 06:31:20;;;;;;;19.80;14.10;;;;;;;;;;5055745;28;20688;-85
2022/01/15 06:33:48;;;;;;;18.40;12.75;;;;;;;;;;5062289;28;20214;-85
2022/01/15 06:36:16;;;;;;;16.05;12.93;;;;;;;;;;5060171;28;20216;-85
2022/01/15 06:38:43;;;;;;;17.55;13.20;;;;;;;;;;5061546;28;20241;-85
2022/01/15 06:41:10;;;;;;;15.63;12.80;;;;;;;;;;5062463;28;20329;-85
2022/01/15 06:43:37;;;;;;;16.27;12.80;;;;;;;;;;5059709;28;20208;-85
2022/01/15 06:46:05;;;;;;;21.40;13.10;;;;;;;;;;5061486;28;20729;-86
2022/01/15 06:48:32;;;;;;;23.35;15.02;;;;;;;;;;5059352;28;20269;-85
2022/01/15 06:51:00;;;;;;;17.58;12.90;;;;;;;;;;5054964;28;20220;-85
2022/01/15 06:53:29;;;;;;;18.27;13.23;;;;;;;;;;5061711;28;20207;-85
2022/01/15 06:55:56;;;;;;;14.68;12.48;;;;;;;;;;5058912;28;20303;-84
2022/01/15 06:58:24;;;;;;;18.48;12.45;;;-2.00;99.90;;;;;;5060632;28;20256;-85
2022/01/15 07:00:52;;;;;;;17.48;14.20;;;;;;;;;;5060802;28;20669;-84
2022/01/15 07:03:19;;;;;;;17.73;13.00;;;;;;;;;;5059758;28;20574;-85
2022/01/15 07:05:46;;;;;;;16.27;13.57;;;;;;;;;;5060886;28;20223;-84
2022/01/15 07:08:15;;;;;;;17.48;13.48;;;;;;;;;;5058590;28;20203;-85
2022/01/15 07:10:43;;;;;;;18.88;13.38;;;;;;;;;;5054909;28;20204;-85
2022/01/15 07:13:11;;;;;;;15.68;14.10;;;;;;;;;;5061493;28;20210;-84
2022/01/15 07:15:38;;;;;;;16.63;12.45;;;;;;;;;;5059352;28;20277;-84
2022/01/15 07:18:06;;;;;;;15.38;11.85;;;;;;;;;;5060147;28;20211;-85
2022/01/15 07:20:33;;;;;;;14.90;12.15;;;;;;;;;;5060650;28;20200;-84
2022/01/15 07:23:00;;;;;;;14.13;11.85;;;;;;;;;;5058868;28;20266;-84
2022/01/15 07:25:29;;;;;;;20.80;13.05;;;;;;;;;;5060978;28;20231;-85
2022/01/15 07:27:56;;;;;;;16.73;12.00;;;;;;;;;;5054075;28;20222;-84
2022/01/15 07:30:24;;;;;;;16.25;12.25;;;;;;;;;;5061535;28;20206;-84
2022/01/15 07:32:51;;;;;;;16.35;12.50;;;;;;;;;;5058935;28;20212;-84
2022/01/15 07:35:19;;;;;;;15.13;13.20;;;;;;;;;;5059496;28;20264;-84
2022/01/15 07:37:46;;;;;;;16.42;13.38;;;;;;;;;;5059498;28;20291;-84
2022/01/15 07:40:13;;;;;;;17.60;12.27;;;;;;;;;;5059265;28;20203;-85
2022/01/15 07:42:42;;;;;;;19.80;13.55;;;-1.70;99.90;;;;;;5060736;28;20204;-85
2022/01/15 07:45:11;;;;;;;18.45;12.48;;;-1.70;99.90;;;;;;5056248;28;20285;-84
2022/01/15 07:47:39;;;;;;;16.88;14.05;;;;;;;;;;5053899;28;20204;-85
2022/01/15 07:50:08;;;;;;;16.13;12.50;;;-2.20;99.90;;;;;;5060113;28;20215;-85
2022/01/15 07:52:35;;;;;;;18.17;12.50;;;;;;;;;;5059481;28;20226;-85
2022/01/15 07:55:03;;;;;;;20.88;14.15;;;;;;;;;;5058978;28;20207;-84
2022/01/15 07:57:30;;;;;;;16.98;15.15;;;;;;;;;;5059942;28;20610;-85
2022/01/15 07:59:59;;;;;;;14.20;12.63;;;-1.60;99.90;;;;;;5060692;28;20207;-85
2022/01/15 08:02:26;;;;;;;18.85;14.68;;;;;;;;;;5057571;28;20204;-84
2022/01/15 08:04:53;;;;;;;20.70;16.00;;;;;;;;;;5060465;28;20219;-84
2022/01/15 08:07:20;;;;;;;20.75;14.80;;;;;;;;;;5057805;28;20207;-84
2022/01/15 08:09:47;;;;;;;20.95;16.10;;;;;;;;;;5060082;28;20203;-86
2022/01/15 08:12:15;;;;;;;16.95;14.30;;;;;;;;;;5058793;28;20200;-87
2022/01/15 08:14:43;;;;;;;22.10;15.50;;;;;;;;;;5058819;28;20253;-88
2022/01/15 08:17:11;;;;;;;19.70;15.90;;;;;;;;;;5059307;28;20208;-88
2022/01/15 08:19:39;;;;;;;16.55;14.82;;;;;;;;;;5058436;28;20208;-88
2022/01/15 08:22:06;;;;;;;24.73;16.00;;;;;;;;;;5061909;28;20211;-88
2022/01/15 08:24:33;;;;;;;18.20;16.27;;;;;;;;;;5058545;28;20222;-87
2022/01/15 08:27:00;;;;;;;27.45;19.58;;;;;;;;;;5060863;28;20775;-89
2022/01/15 08:29:28;;;;;;;27.55;19.90;;;;;;;;;;5057939;28;20257;-88
2022/01/15 08:31:56;;;;;;;22.77;18.70;;;;;;;;;;5059261;28;20921;-88
2022/01/15 08:34:24;;;;;;;20.73;17.55;;;;;;;;;;5057779;28;20226;-87
2022/01/15 08:36:52;;;;;;;20.20;17.67;;;;;;;;;;5058348;28;20260;-87
2022/01/15 08:39:19;;;;;;;25.92;19.85;;;;;;;;;;5059895;28;20274;-87
2022/01/15 08:41:48;;;;;;;29.02;18.75;;;;;;;;;;5057356;28;20204;-87
2022/01/15 08:44:15;;;;;;;22.42;20.05;;;;;;;;;;5051736;28;20289;-85
2022/01/15 08:46:42;;;;;;;24.25;18.85;;;;;;;;;;5059844;28;20231;-86
2022/01/15 08:49:10;;;;;;;21.15;18.15;;;;;;;;;;5057901;28;20262;-85
2022/01/15 08:51:38;;;;;;;20.58;18.38;;;;;;;;;;5059119;28;20649;-85
2022/01/15 08:54:06;;;;;;;22.63;19.77;;;;;;;;;;5058021;28;20212;-85
2022/01/15 08:56:33;;;;;;;25.90;21.27;;;;;;;;;;5057645;28;20207;-85
2022/01/15 08:59:00;;;;;;;27.48;22.42;;;;;;;;;;5059030;28;20604;-84
2022/01/15 09:01:27;;;;;;;28.70;21.17;;;;;;;;;;5056878;28;20219;-84
2022/01/15 09:03:55;;;;;;;25.08;18.58;;;;;;;;;;5059559;28;20207;-83
2022/01/15 09:06:23;;;;;;;22.40;20.10;;;;;;;;;;5056558;28;20289;-84
2022/01/15 09:08:51;;;;;;;27.38;20.67;;;;;;;;;;5059149;28;20219;-84
2022/01/15 09:11:21;;;;;;;32.67;20.50;;;0.40;99.90;;;;;;5057276;28;20203;-84
2022/01/15 09:13:48;;;;;;;29.60;20.13;;;;;;;;;;5058084;28;20703;-84
2022/01/15 09:16:16;;;;;;;28.02;20.90;;;;;;;;;;5058270;28;20684;-84
2022/01/15 09:18:43;;;;;;;29.05;21.10;;;;;;;;;;5057208;28;20208;-84
2022/01/15 09:21:10;;;;;;;28.52;21.27;;;;;;;;;;5059867;28;20207;-85
2022/01/15 09:23:37;;;;;;;28.48;22.35;;;;;;;;;;5052289;28;20631;-85
2022/01/15 09:26:07;;;;;;;29.70;21.80;;;0.70;99.90;;;;;;5058180;28;20231;-84
2022/01/15 09:31:19;;;;;;;30.25;21.17;;;;;;;;;;5052654;28;20243;-84
2022/01/15 09:33:47;;;;;;;26.52;21.70;;;;;;;;;;5059134;28;20260;-85
2022/01/15 09:36:14;;;;;;;23.25;19.65;;;;;;;;;;5056530;28;20200;-84
2022/01/15 09:38:41;;;;;;;21.63;18.83;;;;;;;;;;5058394;28;20207;-84
2022/01/15 09:41:11;;;;;;;33.45;20.92;;;1.40;99.90;;;;;;5058084;28;20246;-84
2022/01/15 09:43:41;;;;;;;23.70;19.90;;;;;;;;;;5057111;28;20214;-84
2022/01/15 09:46:09;;;;;;;30.75;22.70;;;;;;;;;;5060707;28;20235;-83
2022/01/15 09:48:39;;;;;;;26.05;20.70;;;1.20;99.90;;;;;;5056747;28;20246;-84
2022/01/15 09:51:07;;;;;;;22.92;18.13;;;;;;;;;;5062141;28;20239;-84
2022/01/15 09:53:34;;;;;;;31.17;21.63;;;1.50;99.90;;;;;;5061673;28;20208;-84
2022/01/15 09:56:05;;;;;;;26.17;22.75;;;;;;;;;;5061243;28;20207;-84
2022/01/15 09:58:34;;;;;;;26.02;21.75;;;1.50;99.90;;;;;;5062622;28;20654;-83
2022/01/15 10:01:02;;;;;;;27.88;23.35;;;;;;;;;;5063605;28;20226;-84
2022/01/15 10:03:29;;;;;;;27.27;21.00;;;;;;;;;;5058126;28;20207;-84
2022/01/15 10:05:56;;;;;;;29.77;22.50;;;;;;;;;;5059927;28;20262;-84
2022/01/15 10:08:23;;;;;;;25.05;20.52;;;;;;;;;;5062128;28;20240;-83
2022/01/15 10:10:53;;;;;;;24.67;19.73;;;1.90;99.90;;;;;;5061162;28;20220;-84
2022/01/15 10:13:22;;;;;;;26.35;18.83;;;1.80;99.90;;;;;;5061056;28;20218;-83
2022/01/15 10:16:11;;;;;;;27.42;20.73;;;1.90;99.90;;;;;;5061364;28;20215;-83
2022/01/15 10:18:42;;;;;;;24.73;19.00;;;1.90;99.90;;;;;;5060508;28;20798;-84
2022/01/15 10:21:14;;;;;;;23.02;19.73;;;2.00;99.90;;;;;;5059500;28;20208;-83
2022/01/15 10:23:49;;;;;;;22.83;19.35;;;;;;;;;;5056760;28;20211;-83
2022/01/15 10:26:17;;;;;;;20.40;18.20;;;;;;;;;;5059860;28;20231;-83
2022/01/15 10:28:56;;;;;;;22.38;18.08;;;2.50;99.90;;;;;;5062250;28;20227;-83
2022/01/15 10:31:25;;;;;;;24.27;20.08;;;;;;;;;;5056856;28;20214;-84
2022/01/15 10:33:53;;;;;;;27.88;20.38;;;;;;;;;;5061442;28;20593;-83
2022/01/15 10:36:22;;;;;;;24.70;19.70;;;1.90;99.90;;;;;;5060912;28;20741;-84
2022/01/15 10:38:49;;;;;;;29.05;20.15;;;;;;;;;;5059467;28;20293;-83
2022/01/15 10:41:32;;;;;;;24.63;17.55;;;;;;;;;;5062239;28;20210;-84
2022/01/15 10:44:00;;;;;;;24.05;18.05;;;;;;;;;;5058303;28;20203;-83
2022/01/15 10:46:36;;;;;;;27.13;20.52;;;2.40;99.90;;;;;;5059365;28;20227;-83
2022/01/15 10:49:18;;;;;;;23.98;18.85;;;;;;;;;;5059045;28;20227;-83
2022/01/15 10:51:45;;;;;;;23.95;19.85;;;;;;;;;;5059696;28;20355;-83
2022/01/15 10:54:13;;;;;;;23.63;17.52;;;2.50;99.90;;;;;;5061515;28;20545;-83
2022/01/15 10:56:40;;;;;;;23.65;18.33;;;;;;;;;;5058359;28;20207;-83
2022/01/15 10:59:10;;;;;;;23.33;19.38;;;;;;;;;;5054811;28;20217;-83
2022/01/15 11:01:38;;;;;;;28.95;19.50;;;;;;;;;;5059682;28;20218;-83
2022/01/15 11:04:11;;;;;;;22.48;20.15;;;2.60;99.90;;;;;;5060059;28;20610;-83
2022/01/15 11:06:39;;;;;;;28.05;21.67;;;4.70;99.90;;;;;;5060629;28;20712;-83
2022/01/15 11:09:06;;;;;;;22.00;19.55;;;;;;;;;;5059008;28;20574;-83
2022/01/15 11:11:34;;;;;;;26.38;20.60;;;;;;;;;;5061890;28;20566;-83
2022/01/15 11:14:01;;;;;;;32.42;22.50;;;;;;;;;;5054060;28;20212;-82
2022/01/15 11:16:28;;;;;;;26.08;21.20;;;;;;;;;;5060767;28;20261;-83
2022/01/15 11:18:58;;;;;;;26.73;21.45;;;3.10;99.90;;;;;;5059316;28;20227;-83
2022/01/15 11:21:26;;;;;;;30.38;23.17;;;3.00;99.90;;;;;;5060287;28;20277;-83
2022/01/15 11:23:53;;;;;;;28.27;21.88;;;;;;;;;;5059898;28;20299;-83
2022/01/15 11:26:24;;;;;;;24.38;21.77;;;3.00;99.90;;;;;;5058812;28;20267;-82
2022/01/15 11:28:53;;;;;;;26.48;21.08;;;;;;;;;;5061203;28;20268;-82
2022/01/15 11:31:22;;;;;;;29.08;20.98;;;;;;;;;;5054970;28;20206;-83
2022/01/15 11:33:51;;;;;;;26.08;20.08;;;2.80;99.90;;;;;;5060793;28;20230;-83
2022/01/15 11:36:31;;;;;;;29.58;21.80;;;3.00;99.90;;;;;;5059381;28;20222;-83
2022/01/15 11:38:59;;;;;;;30.30;21.85;;;2.70;99.90;;;;;;5053873;28;20941;-83
2022/01/15 11:41:40;;;;;;;28.20;21.58;;;3.00;99.90;;;;;;5061011;28;20203;-82
2022/01/15 11:44:11;;;;;;;28.40;21.10;;;;;;;;;;5060423;28;20207;-82
2022/01/15 11:46:46;;;;;;;26.35;21.27;;;2.90;99.90;;;;;;5053046;28;20277;-83
2022/01/15 11:49:33;;;;;;;27.08;21.48;;;3.20;99.90;;;;;;5059854;28;20210;-82
2022/01/15 11:52:32;;;;;;;23.48;19.55;;;3.10;99.90;;;;;;5054357;28;20211;-82
2022/01/15 11:55:20;;;;;;;27.85;20.50;;;3.20;99.90;;;;;;5055518;28;20208;-83
2022/01/15 11:58:01;;;;;;;25.05;20.33;;;3.20;99.90;;;;;;5054040;28;20202;-82
2022/01/15 12:00:30;;;;;;;28.10;21.63;;;;;;;;;;5060913;28;20215;-83
2022/01/15 12:03:00;;;;;;;25.38;20.05;;;3.20;99.90;;;;;;5058572;28;20195;-82
2022/01/15 12:05:32;;;;;;;26.73;19.30;;;3.20;99.90;;;;;;5057454;28;20219;-82
2022/01/15 12:08:30;;;;;;;26.23;19.83;;;3.30;99.90;;;;;;5057982;28;20246;-81
2022/01/15 12:10:59;;;;;;;29.27;24.45;;;;;;;;;;5058274;28;20257;-80
2022/01/15 12:13:29;;;;;;;30.33;24.85;;;3.30;99.90;;;;;;5057699;28;20226;-83
2022/01/15 12:16:38;;;;;;;28.63;24.35;;;3.20;99.70;;;;;;5053038;28;20582;-83
2022/01/15 12:19:06;;;;;;;34.97;25.23;;;3.20;99.90;;;;;;5057883;28;20277;-80
2022/01/15 12:22:03;;;;;;;31.50;25.33;;;3.40;99.90;;;;;;5057900;28;20294;-81
2022/01/15 12:24:44;;;;;;;32.60;24.45;;;3.20;99.00;;;;;;5058766;28;20879;-82
2022/01/15 12:27:15;;;;;;;28.38;25.05;;;3.10;99.90;;;;;;5056069;28;20307;-81
2022/01/15 12:29:42;;;;;;;34.53;25.30;;;3.30;99.90;;;;;;5058191;28;20592;-81
2022/01/15 12:32:10;;;;;;;34.47;26.02;;;;;;;;;;5060032;28;20218;-81
2022/01/15 12:34:37;;;;;;;29.73;24.67;;;;;;;;;;5056263;28;20219;-81
2022/01/15 12:37:05;;;;;;;32.95;24.48;;;;;;;;;;5053086;28;20208;-82
2022/01/15 12:39:33;;;;;;;31.27;25.13;;;;;;;;;;5059239;28;20708;-81
2022/01/15 12:42:00;;;;;;;30.60;24.48;;;;;;;;;;5058280;28;20290;-82
2022/01/15 12:44:29;;;;;;;28.88;24.25;;;;;;;;;;5053498;28;20200;-82
2022/01/15 12:46:59;;;;;;;31.50;24.25;;;3.30;99.90;;;;;;5057479;28;20694;-82
2022/01/15 12:49:39;;;;;;;30.35;24.67;;;3.40;99.60;;;;;;5059723;28;20324;-81
2022/01/15 12:52:12;;;;;;;30.15;23.10;;;3.50;99.90;;;;;;5055342;28;20269;-82
2022/01/15 12:54:39;;;;;;;31.50;24.75;;;;;;;;;;5056923;28;20208;-82
2022/01/15 12:57:07;;;;;;;32.38;25.00;;;;;;;;;;5056159;28;20254;-82
2022/01/15 12:59:38;;;;;;;35.42;24.05;;;;;;;;;;5060120;28;20206;-82
2022/01/15 13:02:07;;;;;;;27.17;23.83;;;3.50;99.90;;;;;;5054283;28;20211;-82
2022/01/15 13:04:34;;;;;;;29.50;23.17;;;;;;;;;;5056711;28;20208;-82
2022/01/15 13:07:02;;;;;;;31.08;23.80;;;;;;;;;;5058241;28;20238;-82
2022/01/15 13:09:43;;;;;;;30.00;22.95;;;3.60;99.90;;;;;;5058495;28;20269;-82
2022/01/15 13:12:12;;;;;;;31.38;23.10;;;;;;;;;;5053904;28;20215;-82
2022/01/15 13:14:42;;;;;;;31.33;22.73;;;3.60;99.90;;;;;;5057963;28;20294;-82
2022/01/15 13:17:26;;;;;;;31.58;23.70;;;;;;;;;;5058430;28;20518;-82
2022/01/15 13:19:59;;;;;;;27.33;22.00;;;;;;;;;;5054195;28;20211;-82
2022/01/15 13:22:26;;;;;;;32.92;23.15;;;;;;;;;;5057408;28;20211;-82
2022/01/15 13:25:08;;;;;;;27.95;22.73;;;3.60;98.30;;;;;;5057880;28;20215;-82
2022/01/15 13:27:35;;;;;;;26.70;22.48;;;;;;;;;;5054054;28;20579;-81
2022/01/15 13:30:06;;;;;;;26.15;23.35;;;3.60;99.50;;;;;;5057942;28;20211;-82
2022/01/15 13:32:33;;;;;;;30.77;24.88;;;;;;;;;;5058799;28;20260;-82
2022/01/15 13:35:12;;;;;;;26.58;21.67;;;3.40;98.90;;;;;;5056007;28;20219;-82
2022/01/15 13:37:50;;;;;;;27.38;22.60;;;;;;;;;;5054458;28;20621;-82
2022/01/15 13:40:27;;;;;;;25.10;21.25;;;3.40;99.90;;;;;;5056050;28;20223;-82
2022/01/15 13:42:55;;;;;;;27.88;21.00;;;;;;;;;;5054088;28;20200;-82
2022/01/15 13:45:24;;;;;;;23.42;20.58;;;3.60;99.30;;;;;;5056304;28;20605;-82
2022/01/15 13:47:52;;;;;;;27.75;22.20;;;;;;;;;;5058112;28;20775;-82
2022/01/15 13:53:11;;;;;;;27.95;21.17;;;3.50;99.40;;;;;;5056931;28;20595;-82
2022/01/15 13:55:41;;;;;;;29.70;22.27;;;3.50;99.30;;;;;;5055953;28;20231;-82
2022/01/15 13:58:09;;;;;;;27.27;21.45;;;;;;;;;;5055647;28;20203;-82
2022/01/15 14:00:38;;;;;;;28.85;22.67;;;;;;;;;;5052671;28;20204;-82
2022/01/15 14:03:06;;;;;;;33.15;22.05;;;3.40;99.90;;;;;;5055187;28;20203;-83
2022/01/15 14:05:33;;;;;;;26.83;21.65;;;;;;;;;;5057396;28;20214;-82
2022/01/15 14:08:09;;;;;;;27.45;21.98;;;3.30;99.90;;;;;;5057946;28;20231;-82
2022/01/15 14:10:38;;;;;;;26.25;20.35;;;;;;;;;;5055602;28;20203;-83
2022/01/15 14:13:08;;;;;;;30.55;22.90;;;3.40;99.90;;;;;;5052411;28;20712;-82
2022/01/15 14:15:42;;;;;;;32.00;21.40;;;3.00;99.90;;;;;;5057105;28;20283;-82
2022/01/15 14:18:12;;;;;;;29.23;21.30;;;;;;;;;;5058347;28;20381;-82
2022/01/15 14:23:30;;;;;;;28.83;19.15;;;3.00;99.90;;;;;;5052475;28;20591;-82
2022/01/15 14:25:58;;;;;;;30.65;24.08;;;;;;;;;;5054344;28;20200;-82
2022/01/15 14:28:25;;;;;;;27.90;20.90;;;;;;;;;;5052025;28;20236;-82